createdAt,value
2018-11-06T00:01:40.977Z,15.40
2018-11-06T00:04:15.868Z,15.30
2018-11-06T00:06:47.472Z,15.30
2018-11-06T00:09:20.123Z,15.30
2018-11-06T00:11:52.721Z,15.30
2018-11-06T00:14:23.129Z,15.30
2018-11-06T00:16:55.393Z,15.40
2018-11-06T00:19:25.736Z,15.40
2018-11-06T00:21:58.544Z,15.50
2018-11-06T00:24:29.572Z,15.40
2018-11-06T00:27:02.288Z,15.40
2018-11-06T00:29:34.253Z,15.50
2018-11-06T00:32:05.161Z,15.50
2018-11-06T00:34:35.744Z,15.60
2018-11-06T00:37:06.143Z,15.70
2018-11-06T00:39:36.629Z,15.70
2018-11-06T00:42:09.237Z,15.50
2018-11-06T00:44:39.901Z,15.40
2018-11-06T00:47:10.913Z,15.40
2018-11-06T00:49:43.389Z,15.40
2018-11-06T00:52:15.573Z,15.40
2018-11-06T00:54:47.292Z,15.30
2018-11-06T00:57:18.885Z,15.30
2018-11-06T00:59:51.828Z,15.30
2018-11-06T01:02:26.387Z,15.20
2018-11-06T01:04:58.423Z,15.20
2018-11-06T01:07:32.754Z,15.20
2018-11-06T01:10:06.449Z,15.20
2018-11-06T01:12:40.264Z,15.10
2018-11-06T01:15:14.552Z,15.10
2018-11-06T01:17:47.756Z,15.10
2018-11-06T01:20:20.347Z,15.00
2018-11-06T01:22:53.312Z,14.90
2018-11-06T01:25:23.752Z,14.90
2018-11-06T01:27:54.168Z,14.90
2018-11-06T01:30:25.225Z,14.90
2018-11-06T01:32:55.742Z,14.80
2018-11-06T01:35:28.112Z,14.70
2018-11-06T01:37:58.783Z,14.60
2018-11-06T01:40:31.457Z,14.60
2018-11-06T01:43:02.233Z,14.60
2018-11-06T01:45:34.832Z,14.50
2018-11-06T01:48:07.944Z,14.50
2018-11-06T01:50:38.851Z,14.50
2018-11-06T01:53:10.864Z,14.50
2018-11-06T01:55:42.587Z,14.50
2018-11-06T01:58:15.795Z,14.50
2018-11-06T02:00:47.471Z,14.40
2018-11-06T02:03:17.857Z,14.50
2018-11-06T02:05:50.254Z,13.80
2018-11-06T02:08:21.074Z,14.40
2018-11-06T02:10:52.010Z,14.40
2018-11-06T02:13:24.285Z,14.40
2018-11-06T02:15:56.224Z,14.50
2018-11-06T02:18:25.999Z,14.50
2018-11-06T02:20:58.311Z,14.30
2018-11-06T02:23:28.907Z,14.30
2018-11-06T02:25:59.806Z,14.20
2018-11-06T02:28:29.781Z,14.10
2018-11-06T02:31:01.482Z,14.10
2018-11-06T02:33:33.272Z,14.10
2018-11-06T02:36:05.621Z,14.00
2018-11-06T02:38:36.625Z,14.00
2018-11-06T02:41:07.523Z,13.90
2018-11-06T02:43:39.038Z,13.90
2018-11-06T02:46:10.431Z,13.80
2018-11-06T02:48:41.302Z,13.80
2018-11-06T02:51:11.832Z,13.90
2018-11-06T02:53:43.224Z,13.90
2018-11-06T02:56:14.906Z,13.90
2018-11-06T02:58:46.562Z,13.90
2018-11-06T03:01:18.675Z,14.50
2018-11-06T03:03:50.551Z,13.90
2018-11-06T03:06:23.493Z,13.80
2018-11-06T03:08:57.209Z,13.80
2018-11-06T03:11:30.434Z,13.80
2018-11-06T03:14:01.715Z,13.80
2018-11-06T03:16:33.800Z,13.80
2018-11-06T03:19:05.430Z,13.80
2018-11-06T03:21:36.357Z,13.80
2018-11-06T03:24:07.678Z,13.80
2018-11-06T03:26:39.487Z,13.80
2018-11-06T03:29:12.777Z,13.80
2018-11-06T03:31:47.387Z,13.80
2018-11-06T03:34:19.085Z,13.80
2018-11-06T03:36:50.075Z,13.70
2018-11-06T03:39:20.824Z,13.70
2018-11-06T03:41:52.548Z,13.70
2018-11-06T03:44:24.613Z,13.60
2018-11-06T03:46:57.503Z,13.60
2018-11-06T03:49:28.957Z,13.50
2018-11-06T03:52:01.215Z,13.60
2018-11-06T03:54:32.468Z,13.60
2018-11-06T03:57:03.090Z,13.60
2018-11-06T03:59:33.889Z,13.50
2018-11-06T04:02:04.362Z,13.60
2018-11-06T04:04:35.804Z,13.50
2018-11-06T04:07:06.455Z,13.50
2018-11-06T04:09:36.916Z,13.40
2018-11-06T04:12:09.389Z,13.40
2018-11-06T04:14:41.593Z,13.40
2018-11-06T04:17:13.081Z,13.40
2018-11-06T04:19:44.255Z,13.40
2018-11-06T04:22:16.239Z,13.50
2018-11-06T04:24:47.280Z,13.60
2018-11-06T04:27:18.883Z,13.60
2018-11-06T04:29:49.665Z,13.70
2018-11-06T04:32:20.239Z,13.70
2018-11-06T04:34:51.301Z,13.80
2018-11-06T04:37:23.619Z,13.70
2018-11-06T04:39:55.711Z,13.80
2018-11-06T04:42:26.210Z,13.80
2018-11-06T04:44:58.734Z,13.80
2018-11-06T04:47:30.793Z,13.90
2018-11-06T04:50:03.233Z,13.90
2018-11-06T04:52:33.634Z,13.90
2018-11-06T04:55:06.893Z,13.90
2018-11-06T04:57:39.306Z,13.90
2018-11-06T05:00:13.369Z,13.80
2018-11-06T05:02:48.239Z,13.80
2018-11-06T05:05:20.313Z,13.80
2018-11-06T05:07:52.770Z,13.80
2018-11-06T05:10:24.352Z,13.80
2018-11-06T05:12:55.620Z,13.80
2018-11-06T05:15:28.162Z,13.80
2018-11-06T05:17:59.856Z,13.70
2018-11-06T05:20:33.212Z,13.70
2018-11-06T05:23:03.578Z,13.70
2018-11-06T05:25:38.082Z,13.70
2018-11-06T05:28:09.376Z,13.70
2018-11-06T05:30:46.369Z,13.70
2018-11-06T05:33:17.833Z,13.60
2018-11-06T05:35:50.649Z,13.60
2018-11-06T05:38:21.583Z,13.60
2018-11-06T05:41:04.353Z,13.60
2018-11-06T05:43:37.995Z,13.60
2018-11-06T05:46:11.266Z,13.50
2018-11-06T05:48:43.482Z,13.40
2018-11-06T05:51:15.252Z,13.40
2018-11-06T05:53:48.455Z,13.40
2018-11-06T05:56:20.484Z,13.40
2018-11-06T05:58:53.265Z,13.40
2018-11-06T06:01:24.928Z,13.30
2018-11-06T06:03:57.338Z,13.40
2018-11-06T06:06:31.433Z,13.30
2018-11-06T06:09:03.060Z,13.30
2018-11-06T06:11:35.802Z,13.30
2018-11-06T06:14:07.456Z,13.20
2018-11-06T06:16:39.828Z,13.10
2018-11-06T06:19:11.294Z,13.20
2018-11-06T06:21:44.037Z,13.20
2018-11-06T06:24:15.577Z,13.20
2018-11-06T06:26:47.613Z,13.20
2018-11-06T06:29:18.902Z,13.20
2018-11-06T06:31:51.740Z,13.20
2018-11-06T06:34:22.699Z,13.20
2018-11-06T06:36:55.313Z,13.10
2018-11-06T06:39:29.721Z,13.10
2018-11-06T06:42:03.398Z,13.10
2018-11-06T06:44:35.833Z,13.10
2018-11-06T06:47:08.155Z,13.00
2018-11-06T06:49:38.649Z,13.00
2018-11-06T06:52:10.705Z,13.10
2018-11-06T06:54:42.112Z,13.10
2018-11-06T06:57:13.425Z,13.20
2018-11-06T06:59:44.905Z,13.10
2018-11-06T07:02:17.186Z,13.10
2018-11-06T07:04:48.881Z,13.20
2018-11-06T07:07:21.440Z,13.20
2018-11-06T07:09:52.233Z,12.50
2018-11-06T07:12:23.868Z,13.20
2018-11-06T07:14:54.506Z,13.20
2018-11-06T07:17:26.631Z,13.20
2018-11-06T07:19:58.253Z,13.20
2018-11-06T07:22:30.778Z,13.30
2018-11-06T07:25:02.252Z,13.30
2018-11-06T07:27:33.978Z,13.20
2018-11-06T07:30:07.022Z,13.20
2018-11-06T07:32:39.700Z,13.20
2018-11-06T07:35:12.304Z,13.20
2018-11-06T07:37:44.700Z,13.20
2018-11-06T07:40:16.721Z,13.20
2018-11-06T07:42:47.610Z,13.30
2018-11-06T07:45:21.117Z,13.30
2018-11-06T07:47:53.889Z,13.30
2018-11-06T07:50:26.488Z,13.50
2018-11-06T07:52:59.812Z,13.60
2018-11-06T07:55:31.266Z,13.50
2018-11-06T07:58:02.046Z,13.50
2018-11-06T08:00:32.809Z,13.50
2018-11-06T08:03:03.727Z,13.60
2018-11-06T08:05:36.698Z,13.60
2018-11-06T08:08:08.442Z,13.60
2018-11-06T08:10:39.122Z,13.50
2018-11-06T08:13:11.349Z,13.60
2018-11-06T08:15:41.719Z,13.70
2018-11-06T08:18:12.445Z,13.70
2018-11-06T08:20:45.757Z,13.70
2018-11-06T08:23:17.333Z,14.00
2018-11-06T08:25:48.218Z,14.10
2018-11-06T08:28:18.710Z,14.20
2018-11-06T08:30:51.013Z,14.20
2018-11-06T08:33:22.637Z,14.20
2018-11-06T08:35:54.277Z,14.20
2018-11-06T08:38:26.768Z,14.30
2018-11-06T08:41:02.877Z,14.30
2018-11-06T08:43:33.832Z,14.20
2018-11-06T08:46:05.148Z,14.20
2018-11-06T08:48:37.720Z,14.20
2018-11-06T08:51:08.204Z,14.30
2018-11-06T08:53:38.846Z,14.30
2018-11-06T08:56:10.444Z,14.30
2018-11-06T08:58:42.260Z,14.10
2018-11-06T09:01:14.078Z,14.10
2018-11-06T09:03:44.817Z,14.10
2018-11-06T09:06:16.311Z,14.00
2018-11-06T09:08:51.257Z,13.90
2018-11-06T09:11:21.981Z,13.90
2018-11-06T09:13:52.397Z,13.90
2018-11-06T09:16:23.401Z,13.90
2018-11-06T09:18:57.672Z,14.10
2018-11-06T09:21:34.654Z,14.30
2018-11-06T09:24:07.230Z,14.40
2018-11-06T09:26:38.729Z,14.70
2018-11-06T09:29:11.756Z,14.70
2018-11-06T09:31:42.353Z,14.60
2018-11-06T09:34:14.891Z,14.50
2018-11-06T09:36:45.730Z,14.60
2018-11-06T09:39:17.459Z,14.60
2018-11-06T09:41:48.766Z,14.70
2018-11-06T09:44:19.397Z,14.80
2018-11-06T09:46:50.344Z,14.90
2018-11-06T09:49:21.700Z,14.80
2018-11-06T09:51:52.251Z,14.90
2018-11-06T09:54:23.812Z,14.90
2018-11-06T09:56:55.289Z,15.10
2018-11-06T09:59:27.701Z,15.10
2018-11-06T10:01:58.696Z,15.10
2018-11-06T10:04:31.312Z,15.10
2018-11-06T10:07:03.020Z,14.80
2018-11-06T10:09:33.424Z,14.80
2018-11-06T10:12:05.445Z,15.10
2018-11-06T10:14:37.862Z,15.10
2018-11-06T10:17:09.026Z,15.20
2018-11-06T10:19:40.820Z,15.30
2018-11-06T10:22:11.854Z,15.40
2018-11-06T10:24:43.232Z,15.60
2018-11-06T10:27:15.917Z,15.70
2018-11-06T10:29:47.607Z,15.70
2018-11-06T10:32:19.649Z,15.60
2018-11-06T10:34:50.374Z,15.90
2018-11-06T10:37:21.075Z,16.20
2018-11-06T10:39:52.252Z,16.30
2018-11-06T10:42:24.273Z,16.40
2018-11-06T10:44:54.869Z,16.40
2018-11-06T10:47:26.514Z,16.30
2018-11-06T10:49:57.760Z,16.30
2018-11-06T10:52:29.502Z,16.30
2018-11-06T10:55:01.705Z,16.20
2018-11-06T10:57:33.058Z,16.30
2018-11-06T11:00:04.918Z,16.30
2018-11-06T11:02:44.343Z,16.10
2018-11-06T11:05:15.742Z,16.10
2018-11-06T11:07:47.189Z,16.00
2018-11-06T11:10:19.600Z,15.90
2018-11-06T11:12:51.597Z,15.80
2018-11-06T11:15:22.153Z,15.80
2018-11-06T11:17:55.509Z,15.90
2018-11-06T11:20:26.050Z,15.80
2018-11-06T11:22:57.509Z,15.80
2018-11-06T11:25:30.305Z,15.90
2018-11-06T11:28:02.826Z,15.80
2018-11-06T11:30:34.020Z,16.00
2018-11-06T11:33:05.506Z,16.10
2018-11-06T11:35:36.512Z,16.20
2018-11-06T11:38:07.342Z,16.20
2018-11-06T11:40:38.848Z,16.20
2018-11-06T11:43:10.729Z,16.10
2018-11-06T11:45:42.215Z,15.80
2018-11-06T11:48:13.245Z,15.90
2018-11-06T11:50:43.919Z,15.90
2018-11-06T11:53:16.837Z,15.90
2018-11-06T11:55:51.854Z,15.80
2018-11-06T11:58:22.777Z,15.70
2018-11-06T12:00:56.663Z,15.70
2018-11-06T12:03:30.577Z,15.70
2018-11-06T12:06:03.813Z,15.80
2018-11-06T12:08:38.818Z,16.00
2018-11-06T12:11:10.633Z,15.90
2018-11-06T12:13:43.048Z,15.80
2018-11-06T12:16:16.658Z,16.10
2018-11-06T12:18:46.873Z,16.30
2018-11-06T12:21:19.757Z,16.50
2018-11-06T12:23:54.534Z,16.60
2018-11-06T12:26:25.650Z,16.70
2018-11-06T12:28:55.772Z,16.90
2018-11-06T12:31:26.971Z,17.00
2018-11-06T12:33:59.866Z,16.80
2018-11-06T12:36:34.702Z,16.90
2018-11-06T12:39:06.074Z,16.90
2018-11-06T12:41:40.701Z,16.70
2018-11-06T12:44:13.185Z,16.80
2018-11-06T12:46:47.597Z,16.80
2018-11-06T12:49:19.759Z,16.60
2018-11-06T12:51:51.923Z,16.60
2018-11-06T12:54:27.011Z,16.30
2018-11-06T12:56:59.439Z,16.10
2018-11-06T12:59:32.441Z,16.00
2018-11-06T13:02:02.702Z,16.10
2018-11-06T13:04:33.294Z,16.20
2018-11-06T13:07:04.105Z,16.00
2018-11-06T13:09:34.629Z,15.90
2018-11-06T13:12:05.852Z,16.10
2018-11-06T13:14:39.401Z,16.00
2018-11-06T13:17:12.306Z,16.10
2018-11-06T13:19:43.261Z,16.10
2018-11-06T13:22:17.767Z,16.10
2018-11-06T13:24:51.136Z,16.40
2018-11-06T13:27:25.055Z,16.60
2018-11-06T13:30:01.207Z,16.50
2018-11-06T13:32:32.830Z,16.50
2018-11-06T13:35:07.119Z,16.80
2018-11-06T13:37:39.269Z,17.40
2018-11-06T13:40:15.331Z,17.90
2018-11-06T13:42:47.035Z,17.30
2018-11-06T13:45:23.501Z,17.30
2018-11-06T13:47:55.111Z,16.80
2018-11-06T13:50:26.584Z,16.90
2018-11-06T13:52:57.833Z,17.00
2018-11-06T13:55:29.845Z,17.20
2018-11-06T13:58:00.849Z,17.10
2018-11-06T14:00:33.922Z,17.10
2018-11-06T14:03:06.830Z,17.30
2018-11-06T14:05:37.904Z,17.30
2018-11-06T14:08:08.857Z,17.20
2018-11-06T14:10:42.057Z,17.10
2018-11-06T14:13:14.823Z,17.10
2018-11-06T14:15:46.774Z,16.80
2018-11-06T14:18:17.618Z,16.70
2018-11-06T14:20:52.130Z,16.60
2018-11-06T14:23:23.968Z,16.50
2018-11-06T14:26:00.134Z,16.70
2018-11-06T14:28:35.084Z,16.80
2018-11-06T14:31:08.537Z,16.90
2018-11-06T14:33:42.582Z,17.10
2018-11-06T14:36:13.663Z,17.20
2018-11-06T14:38:44.568Z,17.80
2018-11-06T14:41:15.445Z,17.00
2018-11-06T14:43:49.090Z,18.40
2018-11-06T14:46:22.131Z,18.70
2018-11-06T14:48:56.363Z,18.10
2018-11-06T14:51:29.657Z,17.70
2018-11-06T14:54:09.218Z,17.30
2018-11-06T14:56:42.144Z,17.10
2018-11-06T14:59:12.897Z,16.90
2018-11-06T15:01:49.781Z,16.80
2018-11-06T15:04:22.160Z,16.60
2018-11-06T15:06:55.407Z,16.60
2018-11-06T15:09:27.884Z,16.70
2018-11-06T15:12:05.852Z,16.60
2018-11-06T15:14:40.162Z,16.70
2018-11-06T15:17:13.214Z,16.70
2018-11-06T15:19:45.749Z,16.70
2018-11-06T15:22:17.925Z,16.70
2018-11-06T15:24:50.546Z,16.80
2018-11-06T15:27:24.597Z,16.60
2018-11-06T15:29:57.676Z,16.40
2018-11-06T15:32:28.938Z,16.50
2018-11-06T15:35:05.049Z,16.20
2018-11-06T15:37:39.741Z,16.20
2018-11-06T15:40:18.068Z,16.20
2018-11-06T15:42:48.906Z,16.10
2018-11-06T15:45:26.030Z,16.10
2018-11-06T15:47:57.756Z,16.20
2018-11-06T15:50:32.087Z,15.50
2018-11-06T15:53:02.857Z,16.00
2018-11-06T15:55:37.838Z,15.80
2018-11-06T15:58:11.181Z,15.80
2018-11-06T16:00:42.458Z,15.80
2018-11-06T16:03:15.679Z,15.90
2018-11-06T16:05:49.440Z,15.70
2018-11-06T16:08:24.614Z,15.70
2018-11-06T16:10:57.128Z,15.70
2018-11-06T16:13:30.365Z,15.80
2018-11-06T16:16:00.871Z,15.70
2018-11-06T16:18:33.676Z,15.60
2018-11-06T16:21:06.275Z,15.60
2018-11-06T16:23:43.937Z,15.60
2018-11-06T16:26:17.541Z,15.30
2018-11-06T16:28:49.609Z,15.50
2018-11-06T16:31:22.393Z,15.50
2018-11-06T16:33:53.937Z,15.50
2018-11-06T16:36:25.852Z,15.50
2018-11-06T16:38:57.673Z,15.40
2018-11-06T16:41:33.774Z,15.30
2018-11-06T16:44:08.017Z,15.30
2018-11-06T16:46:41.646Z,15.30
2018-11-06T16:49:12.812Z,15.30
2018-11-06T16:51:45.508Z,15.30
2018-11-06T16:54:18.522Z,15.30
2018-11-06T16:56:49.666Z,15.40
2018-11-06T16:59:20.001Z,15.30
2018-11-06T17:01:53.529Z,15.30
2018-11-06T17:04:23.753Z,15.20
2018-11-06T17:06:55.493Z,15.20
2018-11-06T17:09:28.060Z,15.20
2018-11-06T17:12:01.814Z,15.20
2018-11-06T17:14:35.460Z,15.10
2018-11-06T17:17:06.921Z,15.10
2018-11-06T17:19:38.354Z,15.10
2018-11-06T17:22:08.829Z,15.10
2018-11-06T17:24:42.133Z,15.20
2018-11-06T17:27:14.259Z,15.10
2018-11-06T17:29:44.695Z,14.40
2018-11-06T17:32:17.445Z,15.00
2018-11-06T17:34:50.858Z,15.20
2018-11-06T17:37:24.257Z,15.10
2018-11-06T17:39:56.751Z,15.10
2018-11-06T17:42:27.124Z,15.10
2018-11-06T17:44:58.828Z,15.10
2018-11-06T17:47:30.220Z,15.30
2018-11-06T17:50:03.528Z,15.00
2018-11-06T17:52:34.774Z,15.00
2018-11-06T17:55:06.303Z,15.00
2018-11-06T17:57:37.654Z,15.00
2018-11-06T18:00:13.443Z,15.00
2018-11-06T18:02:47.125Z,15.00
2018-11-06T18:05:19.317Z,15.00
2018-11-06T18:07:50.798Z,14.90
2018-11-06T18:10:22.314Z,14.90
2018-11-06T18:12:53.533Z,14.90
2018-11-06T18:15:25.197Z,14.90
2018-11-06T18:17:56.558Z,14.90
2018-11-06T18:20:28.985Z,14.90
2018-11-06T18:23:03.412Z,14.80
2018-11-06T18:25:34.088Z,14.80
2018-11-06T18:28:08.856Z,14.80
2018-11-06T18:30:41.497Z,14.80
2018-11-06T18:33:15.897Z,14.80
2018-11-06T18:35:48.361Z,14.80
2018-11-06T18:38:19.053Z,14.80
2018-11-06T18:40:53.749Z,14.80
2018-11-06T18:43:25.385Z,14.80
2018-11-06T18:46:00.222Z,14.80
2018-11-06T18:48:33.077Z,14.90
2018-11-06T18:51:05.639Z,14.90
2018-11-06T18:53:42.063Z,14.90
2018-11-06T18:56:16.591Z,14.90
2018-11-06T18:58:54.467Z,14.90
2018-11-06T19:01:32.832Z,14.90
2018-11-06T19:04:04.887Z,14.90
2018-11-06T19:06:37.632Z,14.90
2018-11-06T19:09:11.905Z,14.90
2018-11-06T19:11:50.595Z,14.90
2018-11-06T19:14:26.154Z,14.80
2018-11-06T19:17:01.729Z,14.80
2018-11-06T19:19:34.105Z,14.80
2018-11-06T19:22:09.784Z,14.80
2018-11-06T19:24:41.933Z,14.90
2018-11-06T19:27:15.000Z,14.80
2018-11-06T19:29:48.258Z,14.80
2018-11-06T19:32:20.443Z,14.90
2018-11-06T19:34:52.563Z,14.90
2018-11-06T19:37:24.565Z,14.80
2018-11-06T19:39:56.793Z,14.90
2018-11-06T19:42:33.827Z,14.90
2018-11-06T19:45:08.501Z,14.90
2018-11-06T19:47:41.227Z,14.80
2018-11-06T19:50:15.180Z,14.80
2018-11-06T19:52:48.702Z,14.80
2018-11-06T19:55:27.685Z,14.80
2018-11-06T19:58:02.521Z,14.90
2018-11-06T20:00:40.669Z,14.90
2018-11-06T20:03:19.456Z,14.80
2018-11-06T20:05:58.163Z,14.60
2018-11-06T20:08:32.817Z,14.50
2018-11-06T20:11:06.097Z,14.50
2018-11-06T20:13:39.446Z,14.50
2018-11-06T20:16:13.668Z,14.50
2018-11-06T20:18:47.981Z,14.50
2018-11-06T20:21:21.847Z,14.50
2018-11-06T20:23:56.541Z,14.50
2018-11-06T20:26:31.294Z,14.40
2018-11-06T20:29:03.309Z,14.40
2018-11-06T20:31:39.193Z,14.40
2018-11-06T20:34:17.492Z,14.40
2018-11-06T20:36:53.357Z,14.40
2018-11-06T20:39:29.146Z,14.40
2018-11-06T20:42:00.348Z,14.30
2018-11-06T20:44:35.326Z,14.30
2018-11-06T20:47:06.612Z,14.30
2018-11-06T20:49:39.097Z,14.30
2018-11-06T20:52:13.494Z,14.40
2018-11-06T20:54:47.462Z,14.40
2018-11-06T20:57:23.313Z,14.90
2018-11-06T20:59:55.962Z,14.40
2018-11-06T21:02:29.302Z,14.40
2018-11-06T21:05:04.593Z,14.40
2018-11-06T21:07:40.094Z,14.40
2018-11-06T21:10:11.752Z,14.40
2018-11-06T21:12:45.901Z,14.40
2018-11-06T21:15:19.219Z,14.40
2018-11-06T21:17:50.538Z,14.40
2018-11-06T21:20:27.384Z,14.40
2018-11-06T21:23:02.320Z,14.40
2018-11-06T21:25:36.880Z,14.40
2018-11-06T21:28:08.533Z,14.40
2018-11-06T21:30:41.443Z,14.40
2018-11-06T21:33:15.089Z,14.40
2018-11-06T21:35:47.270Z,14.30
2018-11-06T21:38:20.394Z,14.30
2018-11-06T21:40:52.399Z,14.30
2018-11-06T21:43:28.373Z,14.20
2018-11-06T21:46:01.497Z,14.30
2018-11-06T21:48:37.586Z,14.30
2018-11-06T21:51:12.812Z,14.30
2018-11-06T21:53:48.172Z,14.30
2018-11-06T21:56:21.580Z,14.40
2018-11-06T21:58:53.724Z,14.50
2018-11-06T22:01:26.412Z,14.50
2018-11-06T22:04:01.497Z,14.50
2018-11-06T22:06:32.035Z,14.40
2018-11-06T22:09:05.795Z,14.40
2018-11-06T22:11:37.900Z,14.50
2018-11-06T22:14:12.521Z,14.40
2018-11-06T22:16:45.737Z,14.50
2018-11-06T22:19:23.308Z,14.40
2018-11-06T22:21:56.757Z,14.40
2018-11-06T22:24:30.626Z,14.40
2018-11-06T22:27:04.700Z,14.40
2018-11-06T22:29:39.470Z,14.30
2018-11-06T22:32:14.820Z,14.30
2018-11-06T22:34:49.898Z,14.30
2018-11-06T22:37:25.067Z,14.30
2018-11-06T22:39:55.952Z,14.30
2018-11-06T22:42:28.662Z,14.20
2018-11-06T22:45:01.483Z,14.30
2018-11-06T22:47:35.081Z,14.30
2018-11-06T22:50:19.961Z,14.30
2018-11-06T22:52:52.226Z,14.30
2018-11-06T22:55:24.870Z,16.20
2018-11-06T22:57:55.766Z,14.30
2018-11-06T23:00:32.609Z,14.30
2018-11-06T23:03:08.732Z,14.30
2018-11-06T23:05:41.305Z,14.30
2018-11-06T23:08:19.772Z,14.30
2018-11-06T23:10:53.704Z,14.40
2018-11-06T23:13:24.650Z,14.40
2018-11-06T23:15:57.368Z,14.50
2018-11-06T23:18:29.825Z,13.90
2018-11-06T23:21:01.879Z,14.40
2018-11-06T23:23:34.164Z,14.40
2018-11-06T23:26:04.834Z,14.40
2018-11-06T23:28:36.449Z,14.50
2018-11-06T23:31:08.165Z,14.40
2018-11-06T23:33:39.854Z,14.40
2018-11-06T23:36:11.274Z,14.40
2018-11-06T23:38:44.650Z,14.40
2018-11-06T23:41:17.395Z,14.40
2018-11-06T23:43:48.563Z,13.70
2018-11-06T23:46:19.519Z,14.40
2018-11-06T23:48:52.330Z,14.50
2018-11-06T23:51:24.460Z,14.40
2018-11-06T23:53:54.730Z,14.50
2018-11-06T23:56:27.609Z,14.40
2018-11-06T23:58:59.600Z,14.40
